createdAt,value
2023-03-06T00:01:31.811Z,13.08
2023-03-06T00:04:01.485Z,13.08
2023-03-06T00:06:31.337Z,14.01
2023-03-06T00:09:00.994Z,13.90
2023-03-06T00:11:30.669Z,14.34
2023-03-06T00:14:00.356Z,15.04
2023-03-06T00:16:30.154Z,15.35
2023-03-06T00:18:59.738Z,15.65
2023-03-06T00:21:29.433Z,15.55
2023-03-06T00:23:59.070Z,16.57
2023-03-06T00:26:28.773Z,16.20
2023-03-06T00:28:58.410Z,16.39
2023-03-06T00:31:28.167Z,17.34
2023-03-06T00:33:57.983Z,17.05
2023-03-06T00:36:27.858Z,16.77
2023-03-06T00:38:57.504Z,16.97
2023-03-06T00:41:28.651Z,17.43
2023-03-06T00:43:58.459Z,17.33
2023-03-06T00:46:28.183Z,16.91
2023-03-06T00:48:58.036Z,17.05
2023-03-06T00:51:27.788Z,17.76
2023-03-06T00:53:57.593Z,16.90
2023-03-06T00:56:27.310Z,17.11
2023-03-06T00:58:56.914Z,17.39
2023-03-06T01:01:26.599Z,17.30
2023-03-06T01:06:25.299Z,17.26
2023-03-06T01:08:54.984Z,17.23
2023-03-06T01:11:24.761Z,17.57
2023-03-06T01:13:54.592Z,17.52
2023-03-06T01:16:24.323Z,17.29
2023-03-06T01:18:54.102Z,17.42
2023-03-06T01:21:23.960Z,17.38
2023-03-06T01:23:53.641Z,16.76
2023-03-06T01:26:23.246Z,16.75
2023-03-06T01:28:52.910Z,17.55
2023-03-06T01:31:22.625Z,16.88
2023-03-06T01:33:52.225Z,17.51
2023-03-06T01:36:21.913Z,17.03
2023-03-06T01:38:51.702Z,17.62
2023-03-06T01:41:22.821Z,17.05
2023-03-06T01:43:52.476Z,17.03
2023-03-06T01:46:30.766Z,17.48
2023-03-06T01:49:08.878Z,17.57
2023-03-06T01:51:41.123Z,17.27
2023-03-06T01:54:15.826Z,17.33
2023-03-06T01:56:46.969Z,17.63
2023-03-06T01:59:16.617Z,17.68
2023-03-06T02:01:46.273Z,18.28
2023-03-06T02:04:15.913Z,17.50
2023-03-06T02:06:45.623Z,18.04
2023-03-06T02:09:15.310Z,17.90
2023-03-06T02:11:45.801Z,17.89
2023-03-06T02:14:17.019Z,17.72
2023-03-06T02:16:46.819Z,18.06
2023-03-06T02:19:35.160Z,17.66
2023-03-06T02:22:05.558Z,18.31
2023-03-06T02:24:40.189Z,17.88
2023-03-06T02:27:10.025Z,18.49
2023-03-06T02:29:39.641Z,18.29
2023-03-06T02:32:09.428Z,18.57
2023-03-06T02:34:42.170Z,18.71
2023-03-06T02:37:12.370Z,17.84
2023-03-06T02:39:47.615Z,17.97
2023-03-06T02:42:21.606Z,18.82
2023-03-06T02:44:51.655Z,18.66
2023-03-06T02:47:21.317Z,18.79
2023-03-06T02:49:50.950Z,18.43
2023-03-06T02:52:20.762Z,18.23
2023-03-06T02:54:50.387Z,18.36
2023-03-06T02:57:20.065Z,18.39
2023-03-06T02:59:49.682Z,18.58
2023-03-06T03:02:19.335Z,18.55
2023-03-06T03:04:49.110Z,18.46
2023-03-06T03:07:18.883Z,18.06
2023-03-06T03:09:48.589Z,19.03
2023-03-06T03:12:18.389Z,19.83
2023-03-06T03:14:48.158Z,19.82
2023-03-06T03:17:17.816Z,20.73
2023-03-06T03:19:47.551Z,20.91
2023-03-06T03:22:17.598Z,20.76
2023-03-06T03:24:47.782Z,19.95
2023-03-06T03:27:18.065Z,19.74
2023-03-06T03:29:47.825Z,19.65
2023-03-06T03:32:17.800Z,19.62
2023-03-06T03:34:47.557Z,19.61
2023-03-06T03:37:17.337Z,19.42
2023-03-06T03:39:47.370Z,18.83
2023-03-06T03:42:17.955Z,19.24
2023-03-06T03:44:47.671Z,19.50
2023-03-06T03:47:17.670Z,19.42
2023-03-06T03:49:47.531Z,18.69
2023-03-06T03:52:17.237Z,18.71
2023-03-06T03:54:46.998Z,18.63
2023-03-06T03:57:16.705Z,18.84
2023-03-06T03:59:46.706Z,18.86
2023-03-06T04:02:16.639Z,18.96
2023-03-06T04:04:46.424Z,19.12
2023-03-06T04:07:16.765Z,19.03
2023-03-06T04:09:46.497Z,18.98
2023-03-06T04:12:16.294Z,19.28
2023-03-06T04:14:46.065Z,18.84
2023-03-06T04:17:15.672Z,18.17
2023-03-06T04:19:45.460Z,18.92
2023-03-06T04:22:15.207Z,19.05
2023-03-06T04:24:44.981Z,18.30
2023-03-06T04:27:14.766Z,19.02
2023-03-06T04:29:44.477Z,19.01
2023-03-06T04:32:14.155Z,19.14
2023-03-06T04:34:44.132Z,18.83
2023-03-06T04:37:27.653Z,19.25
2023-03-06T04:39:57.438Z,19.69
2023-03-06T04:42:27.095Z,19.35
2023-03-06T04:44:56.744Z,19.34
2023-03-06T04:47:26.422Z,19.48
2023-03-06T04:49:56.144Z,18.60
2023-03-06T04:52:25.881Z,18.44
2023-03-06T04:54:55.602Z,18.42
2023-03-06T04:57:25.629Z,18.52
2023-03-06T04:59:55.309Z,18.86
2023-03-06T05:02:26.166Z,18.60
2023-03-06T05:04:56.289Z,18.45
2023-03-06T05:07:26.132Z,18.79
2023-03-06T05:09:56.357Z,19.17
2023-03-06T05:12:26.196Z,18.82
2023-03-06T05:14:55.967Z,18.82
2023-03-06T05:17:25.638Z,19.36
2023-03-06T05:19:55.389Z,19.10
2023-03-06T05:22:25.258Z,18.79
2023-03-06T05:24:55.045Z,19.12
2023-03-06T05:27:24.745Z,18.90
2023-03-06T05:29:54.755Z,19.33
2023-03-06T05:32:24.564Z,19.53
2023-03-06T05:34:55.024Z,18.91
2023-03-06T05:37:25.820Z,19.57
2023-03-06T05:39:55.648Z,19.24
2023-03-06T05:42:26.409Z,19.22
2023-03-06T05:44:57.991Z,18.83
2023-03-06T05:47:27.633Z,18.94
2023-03-06T05:49:57.242Z,19.01
2023-03-06T05:52:27.065Z,19.38
2023-03-06T05:54:56.882Z,19.63
2023-03-06T05:57:27.440Z,19.18
2023-03-06T05:59:57.318Z,19.13
2023-03-06T06:02:26.962Z,19.56
2023-03-06T06:04:56.619Z,19.80
2023-03-06T06:07:26.258Z,19.93
2023-03-06T06:09:56.049Z,19.96
2023-03-06T06:12:25.726Z,20.33
2023-03-06T06:14:55.419Z,20.75
2023-03-06T06:17:25.073Z,21.27
2023-03-06T06:19:54.652Z,21.82
2023-03-06T06:22:24.236Z,21.65
2023-03-06T06:24:53.837Z,21.52
2023-03-06T06:27:23.592Z,21.50
2023-03-06T06:29:54.070Z,22.03
2023-03-06T06:32:23.719Z,21.89
2023-03-06T06:34:53.304Z,21.91
2023-03-06T06:37:22.861Z,22.14
2023-03-06T06:39:52.533Z,21.55
2023-03-06T06:42:31.585Z,21.92
2023-03-06T06:45:04.465Z,21.47
2023-03-06T06:47:35.662Z,21.76
2023-03-06T06:50:05.310Z,21.81
2023-03-06T06:52:34.870Z,21.42
2023-03-06T06:55:04.544Z,21.16
2023-03-06T06:57:34.233Z,21.65
2023-03-06T07:00:03.874Z,21.20
2023-03-06T07:02:33.921Z,20.94
2023-03-06T07:05:05.284Z,19.92
2023-03-06T07:07:39.110Z,19.27
2023-03-06T07:10:12.986Z,19.58
2023-03-06T07:12:42.712Z,19.14
2023-03-06T07:15:14.861Z,19.47
2023-03-06T07:17:44.572Z,18.76
2023-03-06T07:20:14.634Z,18.55
2023-03-06T07:22:51.197Z,18.76
2023-03-06T07:25:21.388Z,18.42
2023-03-06T07:27:56.320Z,18.75
2023-03-06T07:30:26.029Z,19.10
2023-03-06T07:32:59.845Z,19.00
2023-03-06T07:35:29.751Z,19.00
2023-03-06T07:37:59.414Z,20.14
2023-03-06T07:40:29.197Z,19.47
2023-03-06T07:43:16.823Z,20.02
2023-03-06T07:45:48.569Z,20.05
2023-03-06T07:48:18.183Z,19.64
2023-03-06T07:50:47.775Z,19.79
2023-03-06T07:53:17.381Z,20.61
2023-03-06T07:55:47.020Z,19.64
2023-03-06T07:58:16.575Z,20.38
2023-03-06T08:00:46.167Z,20.53
2023-03-06T08:03:16.169Z,19.53
2023-03-06T08:05:46.332Z,19.64
2023-03-06T08:08:15.982Z,20.52
2023-03-06T08:10:50.721Z,19.59
2023-03-06T08:13:20.451Z,20.26
2023-03-06T08:15:50.986Z,20.57
2023-03-06T08:18:20.609Z,19.83
2023-03-06T08:20:50.235Z,19.59
2023-03-06T08:23:19.826Z,19.74
2023-03-06T08:25:50.715Z,20.25
2023-03-06T08:28:20.275Z,19.73
2023-03-06T08:30:49.865Z,20.28
2023-03-06T08:33:19.514Z,20.34
2023-03-06T08:35:49.702Z,20.51
2023-03-06T08:38:19.593Z,20.33
2023-03-06T08:40:49.159Z,19.90
2023-03-06T08:43:18.862Z,19.95
2023-03-06T08:45:53.374Z,20.01
2023-03-06T08:48:23.030Z,19.49
2023-03-06T08:50:52.790Z,19.70
2023-03-06T08:53:30.417Z,19.48
2023-03-06T08:56:06.540Z,19.58
2023-03-06T08:58:36.433Z,20.26
2023-03-06T09:01:08.750Z,20.09
2023-03-06T09:03:38.412Z,19.96
2023-03-06T09:06:08.176Z,19.59
2023-03-06T09:08:37.850Z,19.45
2023-03-06T09:11:07.600Z,19.82
2023-03-06T09:13:37.306Z,19.16
2023-03-06T09:16:07.100Z,20.24
2023-03-06T09:18:36.828Z,19.89
2023-03-06T09:21:07.245Z,19.16
2023-03-06T09:23:37.092Z,19.85
2023-03-06T09:26:06.957Z,20.02
2023-03-06T09:28:40.617Z,19.21
2023-03-06T09:31:14.284Z,19.89
2023-03-06T09:33:43.980Z,19.06
2023-03-06T09:36:17.944Z,19.36
2023-03-06T09:38:49.478Z,19.79
2023-03-06T09:41:35.861Z,19.48
2023-03-06T09:44:13.382Z,19.51
2023-03-06T09:47:12.098Z,19.80
2023-03-06T09:50:00.893Z,19.70
2023-03-06T09:52:55.247Z,19.46
2023-03-06T09:55:31.415Z,19.14
2023-03-06T09:58:19.322Z,19.22
2023-03-06T10:01:18.790Z,19.44
2023-03-06T10:03:57.481Z,19.18
2023-03-06T10:06:31.407Z,19.12
2023-03-06T10:09:29.100Z,19.48
2023-03-06T10:11:59.940Z,19.15
2023-03-06T10:14:29.506Z,18.87
2023-03-06T10:17:00.068Z,19.05
2023-03-06T10:19:49.160Z,18.94
2023-03-06T10:22:41.359Z,19.22
2023-03-06T10:25:31.614Z,19.10
2023-03-06T10:28:17.931Z,19.61
2023-03-06T10:31:00.121Z,19.66
2023-03-06T10:33:32.644Z,18.83
2023-03-06T10:36:02.251Z,19.41
2023-03-06T10:38:38.887Z,19.44
2023-03-06T10:41:10.645Z,19.39
2023-03-06T10:43:44.584Z,19.36
2023-03-06T10:46:16.135Z,19.39
2023-03-06T10:48:45.809Z,18.96
2023-03-06T10:51:19.725Z,18.84
2023-03-06T10:53:57.418Z,18.97
2023-03-06T10:56:35.133Z,18.82
2023-03-06T10:59:39.819Z,19.59
2023-03-06T11:02:33.603Z,18.98
2023-03-06T11:05:03.451Z,19.17
2023-03-06T11:07:36.876Z,19.19
2023-03-06T11:10:20.730Z,19.35
2023-03-06T11:13:24.760Z,18.98
2023-03-06T11:16:03.413Z,19.36
2023-03-06T11:18:38.533Z,19.53
2023-03-06T11:21:26.426Z,18.92
2023-03-06T11:23:56.786Z,19.11
2023-03-06T11:26:51.371Z,19.16
2023-03-06T11:29:29.602Z,19.61
2023-03-06T11:32:05.370Z,19.05
2023-03-06T11:34:44.002Z,19.40
2023-03-06T11:37:25.906Z,19.72
2023-03-06T11:40:14.065Z,19.66
2023-03-06T11:42:56.666Z,19.22
2023-03-06T11:46:19.041Z,19.24
2023-03-06T11:49:07.441Z,19.50
2023-03-06T11:51:39.682Z,19.68
2023-03-06T11:54:11.402Z,19.40
2023-03-06T11:57:04.230Z,19.35
2023-03-06T11:59:52.406Z,19.68
2023-03-06T12:02:27.810Z,19.75
2023-03-06T12:05:33.991Z,19.63
2023-03-06T12:08:47.489Z,19.17
2023-03-06T12:11:46.420Z,19.64
2023-03-06T12:14:46.770Z,19.15
2023-03-06T12:17:24.939Z,19.55
2023-03-06T12:20:20.503Z,19.83
2023-03-06T12:22:57.998Z,19.25
2023-03-06T12:25:50.617Z,19.43
2023-03-06T12:28:32.338Z,19.31
2023-03-06T12:31:30.935Z,19.77
2023-03-06T12:34:21.888Z,19.21
2023-03-06T12:37:19.727Z,19.81
2023-03-06T12:40:12.500Z,19.37
2023-03-06T12:43:13.896Z,19.52
2023-03-06T12:45:45.903Z,19.53
2023-03-06T12:48:26.733Z,19.36
2023-03-06T12:50:56.322Z,19.29
2023-03-06T12:53:36.332Z,19.60
2023-03-06T12:56:06.011Z,19.33
2023-03-06T12:58:51.600Z,19.55
2023-03-06T13:01:40.703Z,19.89
2023-03-06T13:04:31.383Z,19.27
2023-03-06T13:07:06.773Z,19.42
2023-03-06T13:09:43.115Z,19.37
2023-03-06T13:12:36.810Z,19.90
2023-03-06T13:15:40.823Z,19.67
2023-03-06T13:18:25.447Z,19.65
2023-03-06T13:21:00.025Z,19.80
2023-03-06T13:23:32.561Z,19.75
2023-03-06T13:26:26.319Z,19.75
2023-03-06T13:28:56.590Z,19.72
2023-03-06T13:31:35.239Z,19.72
2023-03-06T13:34:28.149Z,19.79
2023-03-06T13:37:21.692Z,19.78
2023-03-06T13:40:00.460Z,19.61
2023-03-06T13:42:30.029Z,19.83
2023-03-06T13:45:17.728Z,19.78
2023-03-06T13:50:48.343Z,19.81
2023-03-06T13:53:20.995Z,19.68
2023-03-06T13:56:11.709Z,19.42
2023-03-06T13:58:53.401Z,19.87
2023-03-06T14:01:59.162Z,19.78
2023-03-06T14:04:40.719Z,19.80
2023-03-06T14:07:24.966Z,19.64
2023-03-06T14:10:00.341Z,20.00
2023-03-06T14:12:38.119Z,19.87
2023-03-06T14:15:25.919Z,20.20
2023-03-06T14:18:07.286Z,19.85
2023-03-06T14:20:52.013Z,19.61
2023-03-06T14:23:31.826Z,19.91
2023-03-06T14:26:18.874Z,20.12
2023-03-06T14:28:59.831Z,19.86
2023-03-06T14:31:36.908Z,20.09
2023-03-06T14:34:08.262Z,19.81
2023-03-06T14:36:48.501Z,19.86
2023-03-06T14:39:36.365Z,19.68
2023-03-06T14:42:19.902Z,19.88
2023-03-06T14:44:50.473Z,19.99
2023-03-06T14:47:30.040Z,19.83
2023-03-06T14:50:23.226Z,19.82
2023-03-06T14:53:11.251Z,20.14
2023-03-06T14:55:40.876Z,20.16
2023-03-06T14:58:16.529Z,19.81
2023-03-06T15:00:46.965Z,20.25
2023-03-06T15:03:25.951Z,19.59
2023-03-06T15:05:55.614Z,20.23
2023-03-06T15:08:28.549Z,20.07
2023-03-06T15:11:00.505Z,19.99
2023-03-06T15:13:31.419Z,20.01
2023-03-06T15:16:03.306Z,20.11
2023-03-06T15:18:40.422Z,19.76
2023-03-06T15:21:19.643Z,20.09
2023-03-06T15:23:56.151Z,20.26
2023-03-06T15:26:36.262Z,20.18
2023-03-06T15:29:12.018Z,20.34
2023-03-06T15:31:45.567Z,20.39
2023-03-06T15:34:15.109Z,20.21
2023-03-06T15:36:49.715Z,20.21
2023-03-06T15:39:39.023Z,20.23
2023-03-06T15:42:26.419Z,20.30
2023-03-06T15:44:57.485Z,20.24
2023-03-06T15:47:27.034Z,20.22
2023-03-06T15:49:56.847Z,20.15
2023-03-06T15:52:26.575Z,20.40
2023-03-06T15:54:56.219Z,20.55
2023-03-06T15:57:27.318Z,20.36
2023-03-06T15:59:57.787Z,20.57
2023-03-06T16:02:27.363Z,20.39
2023-03-06T16:04:57.325Z,20.60
2023-03-06T16:07:28.310Z,20.35
2023-03-06T16:09:58.022Z,20.59
2023-03-06T16:12:27.657Z,20.13
2023-03-06T16:14:57.288Z,20.47
2023-03-06T16:17:26.888Z,20.34
2023-03-06T16:19:56.778Z,20.54
2023-03-06T16:22:27.088Z,20.61
2023-03-06T16:24:56.715Z,20.37
2023-03-06T16:27:27.210Z,20.60
2023-03-06T16:29:56.804Z,20.47
2023-03-06T16:32:28.740Z,20.82
2023-03-06T16:34:58.509Z,20.86
2023-03-06T16:37:28.093Z,20.54
2023-03-06T16:39:57.692Z,20.70
2023-03-06T16:42:27.425Z,20.47
2023-03-06T16:44:57.000Z,20.76
2023-03-06T16:47:26.565Z,20.80
2023-03-06T16:49:59.511Z,20.46
2023-03-06T16:52:29.256Z,21.05
2023-03-06T16:54:58.956Z,20.58
2023-03-06T16:57:33.044Z,20.81
2023-03-06T17:00:02.680Z,20.80
2023-03-06T17:02:32.397Z,20.77
2023-03-06T17:05:02.054Z,20.70
2023-03-06T17:07:31.707Z,21.10
2023-03-06T17:10:01.508Z,21.04
2023-03-06T17:12:31.123Z,20.90
2023-03-06T17:15:00.688Z,20.88
2023-03-06T17:17:30.466Z,20.91
2023-03-06T17:20:00.247Z,20.78
2023-03-06T17:22:29.915Z,21.17
2023-03-06T17:24:59.464Z,20.96
2023-03-06T17:27:29.052Z,21.09
2023-03-06T17:30:01.714Z,21.11
2023-03-06T17:32:31.432Z,21.21
2023-03-06T17:35:01.440Z,21.02
2023-03-06T17:37:31.481Z,21.03
2023-03-06T17:40:01.863Z,21.26
2023-03-06T17:42:31.509Z,21.04
2023-03-06T17:45:01.088Z,21.13
2023-03-06T17:47:30.668Z,21.17
2023-03-06T17:50:00.300Z,21.05
2023-03-06T17:52:29.985Z,21.30
2023-03-06T17:54:59.619Z,21.28
2023-03-06T17:57:29.276Z,21.20
2023-03-06T17:59:59.028Z,21.43
2023-03-06T18:02:28.739Z,21.33
2023-03-06T18:04:59.735Z,21.42
2023-03-06T18:07:29.386Z,21.38
2023-03-06T18:09:59.024Z,21.42
2023-03-06T18:12:28.697Z,21.39
2023-03-06T18:14:58.433Z,21.28
2023-03-06T18:17:28.082Z,21.33
2023-03-06T18:19:58.509Z,21.44
2023-03-06T18:22:28.100Z,21.43
2023-03-06T18:24:57.701Z,21.39
2023-03-06T18:27:27.365Z,21.53
2023-03-06T18:29:57.238Z,21.39
2023-03-06T18:32:26.945Z,21.40
2023-03-06T18:34:57.310Z,21.44
2023-03-06T18:37:26.986Z,21.50
2023-03-06T18:39:56.688Z,21.45
2023-03-06T18:42:27.845Z,21.55
2023-03-06T18:44:57.490Z,21.48
2023-03-06T18:47:27.208Z,21.54
2023-03-06T18:49:57.202Z,21.41
2023-03-06T18:52:26.816Z,21.60
2023-03-06T18:54:56.407Z,21.61
2023-03-06T18:57:26.053Z,21.49
2023-03-06T18:59:56.667Z,21.69
2023-03-06T19:02:26.307Z,21.60
2023-03-06T19:04:56.123Z,21.89
2023-03-06T19:07:26.836Z,21.54
2023-03-06T19:09:56.510Z,21.62
2023-03-06T19:12:26.214Z,21.57
2023-03-06T19:14:55.825Z,21.41
2023-03-06T19:17:25.526Z,21.60
2023-03-06T19:19:56.604Z,21.58
2023-03-06T19:22:26.290Z,21.47
2023-03-06T19:24:55.897Z,21.56
2023-03-06T19:27:25.643Z,21.39
2023-03-06T19:29:55.229Z,21.49
2023-03-06T19:32:24.887Z,21.77
2023-03-06T19:34:54.577Z,21.74
2023-03-06T19:37:24.206Z,21.58
2023-03-06T19:39:53.857Z,21.57
2023-03-06T19:42:23.590Z,21.18
2023-03-06T19:44:53.186Z,21.68
2023-03-06T19:47:22.777Z,21.53
2023-03-06T19:49:52.421Z,21.51
2023-03-06T19:52:21.983Z,21.06
2023-03-06T19:54:51.637Z,21.40
2023-03-06T19:57:21.568Z,21.59
2023-03-06T19:59:54.534Z,21.26
2023-03-06T20:02:28.750Z,21.46
2023-03-06T20:04:57.776Z,21.38
2023-03-06T20:07:27.506Z,21.55
2023-03-06T20:10:01.821Z,21.32
2023-03-06T20:12:30.929Z,21.69
2023-03-06T20:15:00.578Z,21.53
2023-03-06T20:17:30.329Z,21.65
2023-03-06T20:20:00.050Z,21.48
2023-03-06T20:22:29.646Z,21.56
2023-03-06T20:24:59.231Z,21.36
2023-03-06T20:27:28.922Z,21.22
2023-03-06T20:29:58.792Z,21.18
2023-03-06T20:32:28.506Z,21.44
2023-03-06T20:34:58.184Z,21.22
2023-03-06T20:37:27.792Z,21.31
2023-03-06T20:39:57.465Z,21.22
2023-03-06T20:42:27.114Z,21.38
2023-03-06T20:44:56.720Z,21.25
2023-03-06T20:47:26.395Z,21.24
2023-03-06T20:49:56.094Z,21.38
2023-03-06T20:52:26.002Z,21.20
2023-03-06T20:54:55.719Z,21.07
2023-03-06T20:57:25.275Z,21.22
2023-03-06T20:59:54.956Z,21.34
2023-03-06T21:02:24.512Z,20.99
2023-03-06T21:04:54.112Z,21.05
2023-03-06T21:07:23.951Z,21.26
2023-03-06T21:09:54.030Z,20.55
2023-03-06T21:12:23.618Z,20.71
2023-03-06T21:14:53.225Z,19.71
2023-03-06T21:17:22.964Z,19.05
2023-03-06T21:19:54.220Z,18.85
2023-03-06T21:22:24.540Z,18.00
2023-03-06T21:24:54.275Z,16.59
2023-03-06T21:27:23.836Z,17.04
2023-03-06T21:29:53.471Z,15.95
2023-03-06T21:32:23.220Z,15.82
2023-03-06T21:34:52.984Z,16.10
2023-03-06T21:37:22.581Z,15.59
2023-03-06T21:39:52.214Z,15.61
2023-03-06T21:42:21.904Z,16.17
2023-03-06T21:44:51.593Z,15.36
2023-03-06T21:47:21.224Z,15.73
2023-03-06T21:49:51.354Z,15.61
2023-03-06T21:52:21.335Z,15.28
2023-03-06T21:54:51.557Z,15.05
2023-03-06T21:57:21.224Z,15.58
2023-03-06T21:59:50.763Z,15.22
2023-03-06T22:02:20.737Z,15.37
2023-03-06T22:04:54.177Z,15.19
2023-03-06T22:07:24.504Z,15.27
2023-03-06T22:09:57.236Z,15.12
2023-03-06T22:12:26.936Z,14.78
2023-03-06T22:14:56.566Z,14.70
2023-03-06T22:17:26.139Z,14.39
2023-03-06T22:19:55.724Z,14.45
2023-03-06T22:22:25.478Z,14.81
2023-03-06T22:24:55.060Z,14.54
2023-03-06T22:27:24.658Z,14.54
2023-03-06T22:29:54.854Z,14.66
2023-03-06T22:32:24.672Z,14.52
2023-03-06T22:34:54.383Z,14.41
2023-03-06T22:37:24.092Z,14.88
2023-03-06T22:39:53.757Z,14.37
2023-03-06T22:42:23.475Z,14.57
2023-03-06T22:44:53.127Z,14.49
2023-03-06T22:47:22.811Z,14.60
2023-03-06T22:49:52.444Z,14.53
2023-03-06T22:52:22.115Z,14.53
2023-03-06T22:54:51.745Z,14.49
2023-03-06T22:57:21.364Z,14.67
2023-03-06T22:59:50.973Z,14.43
2023-03-06T23:02:20.671Z,14.38
2023-03-06T23:04:56.321Z,14.55
2023-03-06T23:07:26.311Z,14.54
2023-03-06T23:09:55.900Z,14.55
2023-03-06T23:12:25.455Z,14.71
2023-03-06T23:14:55.186Z,14.59
2023-03-06T23:17:24.898Z,14.70
2023-03-06T23:19:54.816Z,15.26
2023-03-06T23:22:24.586Z,16.18
2023-03-06T23:24:54.278Z,16.79
2023-03-06T23:27:23.991Z,17.34
2023-03-06T23:29:56.937Z,17.63
2023-03-06T23:32:26.661Z,17.88
2023-03-06T23:34:56.374Z,18.20
2023-03-06T23:37:26.153Z,17.98
2023-03-06T23:40:00.150Z,18.31
2023-03-06T23:42:30.354Z,17.90
2023-03-06T23:45:01.464Z,18.76
2023-03-06T23:47:35.479Z,18.87
2023-03-06T23:50:09.417Z,19.04
2023-03-06T23:52:40.877Z,18.34
2023-03-06T23:55:11.819Z,18.97
2023-03-06T23:57:43.138Z,18.60
